• Join FlightAware (Why Join?)
  • Login
  • US Flag 
07:34PM EST


 

Airport Tracker/Info


-or-


 

Live Flight TrackerFlight Track Log ✈ SWA508 ✈ 30-Apr-2013 ✈ KMDW - KPHL

Flight Track Log - Related Links

Times and Time Zones

All times are in EDT time to prevent confusion due to time zone crossing. See the SWA508 flight status page for this flight to view local times or setup timezone preferences in your user account.

Time Position Orientation Groundspeed Altitude Reporting Facility
EDT Latitude Longitude Course Direction KTS MPH feet Rate Location/Type
01:07PM 41.7667 -87.7667 346° North 141 162 1,900  Level Chicago TRACON
01:08PM 41.8167 -87.7833 346° North 258 297 3,600 840 Climbing Chicago TRACON
01:10PM 41.8006 -87.5803 96° East 284 327 4,600 1,080 Climbing Chicago Center
01:11PM 41.7944 -87.4714 94° East 290 334 7,000 3,180 Climbing Chicago Center
01:12PM 41.7844 -87.3572 97° East 302 348 11,200 3,840 Climbing Chicago Center
01:13PM 41.7753 -87.2386 96° East 315 362 14,900 3,540 Climbing Chicago Center
01:14PM 41.7647 -87.1094 96° East 338 389 18,600 3,240 Climbing Chicago Center
01:15PM 41.7600 -86.9739 93° East 358 412 21,700 2,940 Climbing Chicago Center
01:16PM 41.7639 -86.8036 88° East 377 434 24,700 2,580 Climbing Chicago Center
01:17PM 41.7650 -86.6444 89° East 406 467 27,100 2,160 Climbing Chicago Center
01:18PM 41.7661 -86.4875 89° East 419 482 29,200 1,980 Climbing Chicago Center
01:19PM 41.7678 -86.3333 89° East 417 480 31,300 1,980 Climbing Chicago Center
01:20PM 41.7694 -86.1800 89° East 412 474 33,400 1,980 Climbing Chicago Center
01:21PM 41.7711 -86.0308 89° East 404 465 35,500 1,740 Climbing Chicago Center
01:22PM 41.7731 -85.8886 89° East 388 447 37,100 1,200 Climbing Chicago Center
01:23PM 41.7753 -85.7114 89° East 393 452 38,100 480 Climbing Chicago Center
01:24PM 41.7786 -85.5533 88° East 412 474 38,200 240 Climbing Chicago Center
01:25PM 41.7797 -85.3767 89° East 464 534 38,600 360 Climbing Chicago Center
01:26PM 41.7792 -85.1986 90° East 468 539 39,000 180 Climbing Chicago Center
01:27PM 41.7797 -85.0892 90° East 465 535 39,000  Level Cleveland Center
01:28PM 41.7800 -84.9164 90° East 460 529 39,000  Level Cleveland Center
01:29PM 41.7781 -84.7464 91° East 460 529 39,000  Level Cleveland Center
01:30PM 41.7800 -84.5767 89° East 460 529 39,000  Level Cleveland Center
01:31PM 41.7794 -84.4067 90° East 460 529 39,000  Level Cleveland Center
01:32PM 41.7728 -84.2253 93° East 455 524 39,000  Level Cleveland Center
01:33PM 41.7739 -84.0553 89° East 455 524 39,000  Level Cleveland Center
01:34PM 41.7728 -83.8828 90° East 455 524 39,000  Level Cleveland Center
01:35PM 41.7714 -83.7128 91° East 460 529 39,000  Level Cleveland Center
01:36PM 41.7672 -83.5481 92° East 460 529 39,000 120 Level Cleveland Center
01:37PM 41.7528 -83.3833 97° East 455 524 39,300 540 Climbing Cleveland Center
01:38PM 41.7358 -83.2156 98° East 455 524 40,100 660 Climbing Cleveland Center
01:39PM 41.7144 -83.0478 100° East 455 524 40,700 420 Climbing Cleveland Center
01:40PM 41.6678 -82.8875 111° Southeast 450 518 41,000 120 Climbing Cleveland Center
01:41PM 41.6228 -82.7414 112° Southeast 464 534 41,000  Level Cleveland Center
01:42PM 41.5736 -82.5789 112° Southeast 469 540 41,000  Level Cleveland Center
01:43PM 41.5242 -82.4192 112° Southeast 469 540 41,000  Level Cleveland Center
01:44PM 41.4744 -82.2542 112° Southeast 469 540 41,000  Level Cleveland Center
01:45PM 41.4267 -82.0953 112° Southeast 469 540 41,000  Level Cleveland Center
01:46PM 41.3786 -81.9336 112° Southeast 469 540 41,000  Level Cleveland Center
01:47PM 41.3303 -81.7806 113° Southeast 458 527 41,000  Level Cleveland Center
01:48PM 41.2819 -81.6275 113° Southeast 458 527 41,000  Level Cleveland Center
01:49PM 41.2331 -81.4694 112° Southeast 464 534 41,000  Level Cleveland Center
01:50PM 41.1822 -81.3142 113° Southeast 459 528 41,000  Level Cleveland Center
01:51PM 41.1331 -81.1647 114° Southeast 449 517 41,000  Level Cleveland Center
01:52PM 41.0878 -81.0128 112° Southeast 444 511 41,000  Level Cleveland Center
01:53PM 41.0403 -80.8611 113° Southeast 444 511 41,000  Level Cleveland Center
01:54PM 40.9906 -80.7150 114° Southeast 439 505 41,000  Level Cleveland Center
01:55PM 40.9428 -80.5667 113° Southeast 439 505 41,000  Level Cleveland Center
01:56PM 40.8967 -80.4211 113° Southeast 439 505 41,000  Level Cleveland Center
01:57PM 40.8444 -80.2758 115° Southeast 439 505 41,000  Level Cleveland Center
01:58PM 40.7647 -80.1608 132° Southeast 427 491 41,000  Level Cleveland Center
01:59PM 40.6664 -80.0767 147° Southeast 420 483 41,000 -60 Level Cleveland Center
02:00PM 40.5700 -79.9817 143° Southeast 425 489 40,900 -600 Descending Cleveland Center
02:01PM 40.4694 -79.8925 146° Southeast 430 495 39,900 -960 Descending Cleveland Center
02:02PM 40.3811 -79.7517 129° Southeast 422 486 38,800 -1,740 Descending Cleveland Center
02:03PM 40.3714 -79.5939 95° East 395 455 36,200 -2,640 Descending Cleveland Center
02:04PM 40.3594 -79.4361 96° East 414 476 33,600 -1,620 Descending Cleveland Center
02:05PM 40.3453 -79.2756 97° East 432 497 33,000 -300 Descending Cleveland Center
02:06PM 40.3350 -79.1150 95° East 432 497 33,000  Level Cleveland Center
02:07PM 40.3225 -78.9547 96° East 442 509 33,000 -4,020 Level Cleveland Center
02:08PM 40.3139 -78.7969 94° East 442 509 25,000  Descending Cleveland Center
02:09PM 40.3150 -78.6197 89° East 447 514 33,000 3,960 Climbing Cleveland Center
02:10PM 40.3142 -78.4592 90° East 442 509 33,000 -900 Level Cleveland Center
02:11PM 40.3153 -78.2931 89° East 442 509 31,200 -2,580 Descending Cleveland Center
02:13PM 40.3111 -77.9656 91° East 446 513 25,100 -1,980 Descending New York Center
02:14PM 40.3103 -77.8075 90° East 441 507 25,000 -60 Descending New York Center
02:15PM 40.3094 -77.6442 90° East 441 507 25,000 -420 Level New York Center
02:16PM 40.3081 -77.4861 91° East 441 507 24,200 -1,020 Descending New York Center
02:17PM 40.3061 -77.3333 91° East 441 507 23,000 -1,440 Descending New York Center
02:18PM 40.3000 -77.1831 93° East 429 494 21,400 -1,560 Descending New York Center
02:19PM 40.2933 -77.0356 93° East 415 478 20,000 -1,020 Descending New York Center
02:20PM 40.2608 -76.8964 107° East 400 460 19,500 -1,260 Descending New York Center
02:21PM 40.2303 -76.7633 107° East 390 449 17,500 -2,160 Descending New York Center
02:22PM 40.1994 -76.6275 107° East 390 449 15,200 -1,860 Descending New York Center
02:23PM 40.1667 -76.4889 107° East 372 428 13,800 -1,260 Descending New York Center
02:24PM 40.1411 -76.3725 106° East 349 402 12,700 -1,080 Descending New York Center
02:25PM 40.1189 -76.2678 105° East 325 374 11,700 -900 Descending New York Center
02:26PM 40.1128 -76.1722 95° East 292 336 11,000 -360 Descending New York Center
02:27PM 40.1053 -76.0603 95° East 292 336 11,000  Level New York Center
02:28PM 40.0975 -75.9567 96° East 292 336 11,000 -720 Level New York Center
02:29PM 40.0894 -75.8556 96° East 287 330 9,600 -1,380 Descending New York Center
02:30PM 40.0811 -75.7544 96° East 282 325 8,300 -1,020 Descending New York Center
02:31PM 40.0767 -75.6647 94° East 256 295 7,600 -840 Descending New York Center
02:32PM 40.0719 -75.5775 94° East 249 287 6,700 -840 Descending New York Center
02:33PM 40.0686 -75.5014 93° East 238 274 6,000 -360 Descending New York Center
02:34PM 40.0486 -75.4269 109° East 214 246 6,000  Level New York Center
02:35PM 40.0017 -75.4561 205° Southwest 166 191 6,000  Level New York Center
02:36PM 39.9553 -75.5208 227° Southwest 182 209 6,000  Level New York Center
02:37PM 39.9028 -75.5333 190° South 192 221 6,000  Level New York Center
02:38PM 39.8853 -75.6053 252° West 199 229 6,000 -60 Level New York Center
02:39PM 39.8697 -75.6744 254° West 210 242 5,900 -360 Descending New York Center
02:40PM 39.8250 -75.6983 202° Southwest 181 208 5,300 -660 Descending New York Center
02:41PM 39.7867 -75.6714 152° Southeast 141 162 4,700 -540 Descending New York Center
02:43PM 39.8000 -75.5500 82° East 170 196 3,800 -480 Descending Philadelphia TRACON
02:44PM 39.8167 -75.5000 67° East 167 192 3,400 -600 Descending Philadelphia TRACON
02:45PM 39.8333 -75.4500 67° East 170 196 2,700 -900 Descending Philadelphia TRACON
02:46PM 39.8333 -75.3833 90° East 163 188 1,600 -780 Descending Philadelphia TRACON
02:47PM 39.8500 -75.3333 67° East 118 136 1,000 -660 Descending Philadelphia TRACON
02:48PM 39.8500 -75.3000 90° East 119 137 400 -720 Descending Philadelphia TRACON
02:50PM 39.8667 -75.2333 90° East  Level FlightAware Approximate
02:57PM 39.8722 -75.2409 90° East  Level Estimated